createdAt,value
2022-11-20T00:00:55.818Z,95650.28
2022-11-20T00:03:22.763Z,95733.63
2022-11-20T00:05:49.441Z,95697.41
2022-11-20T00:08:16.196Z,95741.19
2022-11-20T00:10:42.869Z,95749.97
2022-11-20T00:13:09.728Z,95729.50
2022-11-20T00:15:36.352Z,95722.00
2022-11-20T00:18:03.075Z,95736.50
2022-11-20T00:20:29.793Z,95714.75
2022-11-20T00:22:56.372Z,95731.59
2022-11-20T00:25:23.071Z,95734.19
2022-11-20T00:27:49.668Z,95730.31
2022-11-20T00:30:16.450Z,95727.19
2022-11-20T00:32:43.121Z,95711.66
2022-11-20T00:35:09.728Z,95705.44
2022-11-20T00:37:36.306Z,95731.34
2022-11-20T00:40:03.182Z,95736.00
2022-11-20T00:42:30.053Z,95728.22
2022-11-20T00:44:56.724Z,95738.84
2022-11-20T00:47:23.316Z,95737.78
2022-11-20T00:49:49.984Z,95704.38
2022-11-20T00:52:16.628Z,95749.44
2022-11-20T00:54:43.226Z,95717.88
2022-11-20T00:57:09.838Z,95751.28
2022-11-20T00:59:36.456Z,95731.59
2022-11-20T01:02:03.108Z,95736.25
2022-11-20T01:04:29.833Z,95738.81
2022-11-20T01:06:56.536Z,95745.56
2022-11-20T01:09:23.472Z,95762.38
2022-11-20T01:11:50.284Z,95732.34
2022-11-20T01:14:20.151Z,95759.28
2022-11-20T01:16:49.966Z,95760.59
2022-11-20T01:19:23.885Z,95710.38
2022-11-20T01:21:53.195Z,95759.53
2022-11-20T01:24:21.123Z,95746.34
2022-11-20T01:26:52.341Z,95749.19
2022-11-20T01:29:24.331Z,95754.38
2022-11-20T01:31:52.469Z,95766.78
2022-11-20T01:34:20.498Z,95730.56
2022-11-20T01:36:47.222Z,95768.34
2022-11-20T01:39:27.636Z,95741.41
2022-11-20T01:42:13.856Z,95749.72
2022-11-20T01:44:46.428Z,95755.66
2022-11-20T01:47:17.327Z,95741.19
2022-11-20T01:49:51.604Z,95740.16
2022-11-20T01:52:50.147Z,95748.66
2022-11-20T01:55:22.253Z,95745.31
2022-11-20T01:57:49.811Z,95757.50
2022-11-20T02:00:19.215Z,95758.78
2022-11-20T02:03:01.644Z,95719.44
2022-11-20T02:05:52.521Z,95746.09
2022-11-20T02:08:21.028Z,95739.38
2022-11-20T02:10:47.689Z,95725.13
2022-11-20T02:13:33.000Z,95768.56
2022-11-20T02:15:59.848Z,95771.72
2022-11-20T02:18:27.093Z,95766.03
2022-11-20T02:21:25.629Z,95759.28
2022-11-20T02:23:55.316Z,95766.53
2022-11-20T02:26:24.169Z,95762.91
2022-11-20T02:28:51.483Z,95743.00
2022-11-20T02:31:18.084Z,95743.25
2022-11-20T02:33:44.711Z,95708.56
2022-11-20T02:36:15.413Z,95695.66
2022-11-20T02:38:44.104Z,95703.69
2022-11-20T02:41:10.846Z,95701.09
2022-11-20T02:43:37.591Z,95716.88
2022-11-20T02:46:04.211Z,95720.25
2022-11-20T02:48:33.811Z,95696.94
2022-11-20T02:51:01.104Z,95728.75
2022-11-20T02:53:27.922Z,95700.31
2022-11-20T02:55:54.562Z,95707.56
2022-11-20T02:58:21.222Z,95732.16
2022-11-20T03:00:47.763Z,95729.28
2022-11-20T03:03:14.377Z,95699.78
2022-11-20T03:05:40.929Z,95707.56
2022-11-20T03:08:07.545Z,95723.06
2022-11-20T03:10:34.172Z,95705.47
2022-11-20T03:13:00.715Z,95723.34
2022-11-20T03:15:27.287Z,95709.91
2022-11-20T03:17:56.130Z,95711.72
2022-11-20T03:20:23.763Z,95721.25
2022-11-20T03:22:50.549Z,95703.44
2022-11-20T03:25:17.235Z,95721.00
2022-11-20T03:27:43.859Z,95714.28
2022-11-20T03:30:10.818Z,95709.09
2022-11-20T03:32:37.411Z,95690.72
2022-11-20T03:35:04.137Z,95662.03
2022-11-20T03:37:30.699Z,95683.75
2022-11-20T03:39:57.251Z,95733.97
2022-11-20T03:42:42.334Z,95699.00
2022-11-20T03:45:09.412Z,95732.13
2022-11-20T03:47:36.159Z,95725.41
2022-11-20T03:50:03.360Z,95719.97
2022-11-20T03:52:30.045Z,95698.78
2022-11-20T03:54:56.627Z,95691.78
2022-11-20T03:57:23.250Z,95701.84
2022-11-20T03:59:49.861Z,95662.53
2022-11-20T04:02:16.460Z,95699.28
2022-11-20T04:04:43.134Z,95667.72
2022-11-20T04:07:09.824Z,95680.38
2022-11-20T04:09:36.484Z,95686.59
2022-11-20T04:12:03.128Z,95664.84
2022-11-20T04:14:29.750Z,95694.38
2022-11-20T04:16:56.323Z,95697.72
2022-11-20T04:19:23.448Z,95660.72
2022-11-20T04:21:50.237Z,95701.59
2022-11-20T04:24:16.845Z,95697.72
2022-11-20T04:26:43.415Z,95707.56
2022-11-20T04:29:12.564Z,95681.66
2022-11-20T04:31:39.419Z,95689.44
2022-11-20T04:34:07.649Z,95688.38
2022-11-20T04:36:34.574Z,95699.78
2022-11-20T04:39:04.554Z,95691.00
2022-11-20T04:41:34.017Z,95691.78
2022-11-20T04:44:05.599Z,95689.94
2022-11-20T04:46:41.049Z,95700.56
2022-11-20T04:49:08.703Z,95694.88
2022-11-20T04:51:35.998Z,95691.00
2022-11-20T04:54:03.006Z,95679.34
2022-11-20T04:56:29.712Z,95673.91
2022-11-20T04:58:56.335Z,95659.41
2022-11-20T05:01:25.802Z,95678.06
2022-11-20T05:03:52.894Z,95673.16
2022-11-20T05:06:21.546Z,95652.72
2022-11-20T05:08:48.721Z,95624.50
2022-11-20T05:11:18.610Z,95665.13
2022-11-20T05:13:45.513Z,95643.91
2022-11-20T05:16:14.781Z,95668.22
2022-11-20T05:18:42.456Z,95640.56
2022-11-20T05:21:10.507Z,95662.28
2022-11-20T05:23:37.764Z,95654.50
2022-11-20T05:26:05.599Z,95669.50
2022-11-20T05:28:33.238Z,95682.22
2022-11-20T05:31:14.833Z,95677.81
2022-11-20T05:33:43.177Z,95656.84
2022-11-20T05:36:10.558Z,95646.00
2022-11-20T05:38:37.191Z,95675.47
2022-11-20T05:41:22.419Z,95676.75
2022-11-20T05:43:50.294Z,95655.03
2022-11-20T05:46:24.745Z,95669.00
2022-11-20T05:48:54.631Z,95647.00
2022-11-20T05:51:21.323Z,95643.66
2022-11-20T05:53:48.921Z,95662.53
2022-11-20T05:56:20.991Z,95666.94
2022-11-20T05:58:48.556Z,95633.28
2022-11-20T06:01:24.011Z,95659.41
2022-11-20T06:03:51.857Z,95611.59
2022-11-20T06:06:19.465Z,95658.91
2022-11-20T06:08:46.534Z,95651.91
2022-11-20T06:11:14.728Z,95660.72
2022-11-20T06:13:42.732Z,95656.03
2022-11-20T06:16:10.878Z,95625.53
2022-11-20T06:18:38.083Z,95655.03
2022-11-20T06:21:08.867Z,95650.59
2022-11-20T06:23:36.660Z,95643.91
2022-11-20T06:26:09.517Z,95639.22
2022-11-20T06:28:36.596Z,95640.78
2022-11-20T06:31:04.261Z,95621.63
2022-11-20T06:33:31.220Z,95649.84
2022-11-20T06:36:01.637Z,95658.63
2022-11-20T06:38:30.759Z,95640.50
2022-11-20T06:40:57.628Z,95659.91
2022-11-20T06:43:25.264Z,95657.06
2022-11-20T06:45:56.033Z,95642.84
2022-11-20T06:48:23.558Z,95633.28
2022-11-20T06:50:50.188Z,95644.91
2022-11-20T06:53:16.990Z,95644.66
2022-11-20T06:55:45.636Z,95664.84
2022-11-20T06:58:16.622Z,95651.91
2022-11-20T07:00:43.441Z,95647.78
2022-11-20T07:03:11.809Z,95665.59
2022-11-20T07:05:39.477Z,95673.09
2022-11-20T07:08:06.219Z,95655.25
2022-11-20T07:10:33.216Z,95658.06
2022-11-20T07:13:00.375Z,95675.41
2022-11-20T07:15:27.034Z,95673.59
2022-11-20T07:17:53.714Z,95640.75
2022-11-20T07:20:20.338Z,95670.78
2022-11-20T07:22:47.017Z,95684.50
2022-11-20T07:25:13.636Z,95663.28
2022-11-20T07:27:40.279Z,95680.09
2022-11-20T07:30:07.814Z,95681.91
2022-11-20T07:32:34.435Z,95665.34
2022-11-20T07:35:01.024Z,95681.91
2022-11-20T07:37:27.606Z,95684.50
2022-11-20T07:39:54.246Z,95638.72
2022-11-20T07:42:20.837Z,95662.72
2022-11-20T07:44:50.386Z,95642.56
2022-11-20T07:47:16.978Z,95665.81
2022-11-20T07:49:43.583Z,95674.91
2022-11-20T07:52:10.166Z,95648.25
2022-11-20T07:54:36.870Z,95638.16
2022-11-20T07:57:03.647Z,95665.84
2022-11-20T07:59:30.223Z,95648.78
2022-11-20T08:01:56.792Z,95649.28
2022-11-20T08:04:24.371Z,95679.53
2022-11-20T08:06:53.366Z,95661.13
2022-11-20T08:09:20.274Z,95675.63
2022-11-20T08:12:05.689Z,95653.88
2022-11-20T08:14:32.383Z,95650.31
2022-11-20T08:16:58.937Z,95656.22
2022-11-20T08:19:25.502Z,95658.81
2022-11-20T08:21:52.087Z,95681.59
2022-11-20T08:24:18.730Z,95646.91
2022-11-20T08:26:45.365Z,95624.16
2022-11-20T08:29:12.167Z,95656.97
2022-11-20T08:31:38.984Z,95642.25
2022-11-20T08:34:09.194Z,95655.13
2022-11-20T08:36:36.532Z,95657.44
2022-11-20T08:39:04.147Z,95643.47
2022-11-20T08:41:33.847Z,95614.53
2022-11-20T08:44:03.067Z,95681.47
2022-11-20T08:46:36.382Z,95684.78
2022-11-20T08:49:03.495Z,95669.34
2022-11-20T08:51:30.370Z,95660.75
2022-11-20T08:53:57.119Z,95681.66
2022-11-20T08:56:23.821Z,95655.03
2022-11-20T08:59:20.196Z,95673.66
2022-11-20T09:01:39.972Z,95648.72
2022-11-20T09:04:06.829Z,95672.81
2022-11-20T09:06:33.510Z,95680.53
2022-11-20T09:09:06.138Z,95677.66
2022-11-20T09:11:33.409Z,95663.69
2022-11-20T09:14:00.990Z,95670.44
2022-11-20T09:16:27.613Z,95634.22
2022-11-20T09:19:13.498Z,95625.94
2022-11-20T09:21:40.799Z,95637.03
2022-11-20T09:24:07.673Z,95669.34
2022-11-20T09:26:34.331Z,95639.34
2022-11-20T09:29:00.910Z,95646.81
2022-11-20T09:31:27.601Z,95640.38
2022-11-20T09:33:54.541Z,95619.75
2022-11-20T09:36:21.332Z,95630.31
2022-11-20T09:38:48.134Z,95662.78
2022-11-20T09:41:46.825Z,95667.69
2022-11-20T09:44:35.467Z,95665.66
2022-11-20T09:47:26.699Z,95650.97
2022-11-20T09:50:22.502Z,95619.47
2022-11-20T09:53:20.218Z,95645.00
2022-11-20T09:55:47.341Z,95646.63
2022-11-20T09:58:21.963Z,95631.44
2022-11-20T10:00:49.310Z,95608.09
2022-11-20T10:03:24.053Z,95641.59
2022-11-20T10:05:56.138Z,95635.78
2022-11-20T10:08:26.298Z,95642.06
2022-11-20T10:11:08.295Z,95634.06
2022-11-20T10:13:44.206Z,95624.19
2022-11-20T10:16:17.816Z,95634.34
2022-11-20T10:19:08.259Z,95600.75
2022-11-20T10:21:57.950Z,95635.38
2022-11-20T10:25:05.373Z,95629.22
2022-11-20T10:27:51.898Z,95607.22
2022-11-20T10:30:21.796Z,95624.81
2022-11-20T10:32:58.803Z,95616.69
2022-11-20T10:35:52.124Z,95625.63
2022-11-20T10:38:26.898Z,95623.03
2022-11-20T10:41:21.700Z,95574.69
2022-11-20T10:43:52.727Z,95618.06
2022-11-20T10:46:25.545Z,95579.00
2022-11-20T10:48:52.589Z,95598.88
2022-11-20T10:52:00.410Z,95620.03
2022-11-20T10:55:12.166Z,95615.63
2022-11-20T10:57:57.546Z,95626.41
2022-11-20T11:00:24.325Z,95586.44
2022-11-20T11:02:57.342Z,95621.72
2022-11-20T11:05:51.524Z,95594.38
2022-11-20T11:08:20.355Z,95608.81
2022-11-20T11:10:57.097Z,95611.34
2022-11-20T11:13:29.190Z,95588.13
2022-11-20T11:15:56.419Z,95605.53
2022-11-20T11:18:28.277Z,95606.34
2022-11-20T11:20:56.254Z,95583.63
2022-11-20T11:23:38.690Z,95599.81
2022-11-20T11:26:07.888Z,95561.84
2022-11-20T11:28:35.207Z,95590.69
2022-11-20T11:31:01.889Z,95588.53
2022-11-20T11:33:36.088Z,95562.44
2022-11-20T11:36:17.422Z,95594.47
2022-11-20T11:38:45.316Z,95582.97
2022-11-20T11:41:21.961Z,95584.00
2022-11-20T11:44:16.430Z,95560.22
2022-11-20T11:46:57.302Z,95556.13
2022-11-20T11:49:24.100Z,95577.69
2022-11-20T11:52:08.827Z,95577.94
2022-11-20T11:54:38.322Z,95571.50
2022-11-20T11:57:31.489Z,95566.69
2022-11-20T12:00:12.247Z,95577.47
2022-11-20T12:02:43.706Z,95573.69
2022-11-20T12:05:17.858Z,95556.88
2022-11-20T12:07:51.235Z,95530.69
2022-11-20T12:10:25.045Z,95564.94
2022-11-20T12:13:01.877Z,95585.38
2022-11-20T12:15:35.104Z,95581.59
2022-11-20T12:18:02.191Z,95570.41
2022-11-20T12:20:41.750Z,95574.19
2022-11-20T12:23:22.958Z,95552.63
2022-11-20T12:25:56.584Z,95573.06
2022-11-20T12:28:37.966Z,95573.78
2022-11-20T12:31:37.562Z,95570.59
2022-11-20T12:34:10.303Z,95572.56
2022-11-20T12:36:48.746Z,95564.56
2022-11-20T12:39:36.607Z,95564.56
2022-11-20T12:42:41.029Z,95536.88
2022-11-20T12:45:29.347Z,95568.34
2022-11-20T12:48:31.497Z,95553.50
2022-11-20T12:51:25.882Z,95567.66
2022-11-20T12:54:04.257Z,95570.47
2022-11-20T12:56:40.317Z,95561.34
2022-11-20T12:59:25.728Z,95565.41
2022-11-20T13:01:56.104Z,95541.66
2022-11-20T13:04:37.866Z,95577.09
2022-11-20T13:07:09.743Z,95562.03
2022-11-20T13:09:49.416Z,95556.03
2022-11-20T13:12:41.518Z,95566.53
2022-11-20T13:15:43.636Z,95577.31
2022-11-20T13:18:12.213Z,95523.03
2022-11-20T13:20:44.500Z,95533.38
2022-11-20T13:23:11.459Z,95562.31
2022-11-20T13:25:40.018Z,95554.72
2022-11-20T13:28:12.677Z,95563.53
2022-11-20T13:30:52.056Z,95566.59
2022-11-20T13:33:33.001Z,95556.00
2022-11-20T13:36:06.100Z,95555.91
2022-11-20T13:38:48.588Z,95548.41
2022-11-20T13:41:38.733Z,95553.59
2022-11-20T13:44:16.311Z,95548.81
2022-11-20T13:46:45.800Z,95554.16
2022-11-20T13:49:28.296Z,95555.56
2022-11-20T13:52:31.893Z,95530.88
2022-11-20T13:55:26.653Z,95548.19
2022-11-20T13:58:06.945Z,95536.38
2022-11-20T14:00:33.696Z,95525.16
2022-11-20T14:03:06.429Z,95548.09
2022-11-20T14:05:40.793Z,95545.34
2022-11-20T14:08:14.905Z,95532.66
2022-11-20T14:10:41.567Z,95563.25
2022-11-20T14:13:18.532Z,95559.06
2022-11-20T14:15:45.492Z,95552.16
2022-11-20T14:18:22.834Z,95564.66
2022-11-20T14:20:49.937Z,95558.06
2022-11-20T14:23:29.743Z,95534.53
2022-11-20T14:25:57.183Z,95566.19
2022-11-20T14:28:32.521Z,95572.44
2022-11-20T14:30:59.420Z,95567.94
2022-11-20T14:33:27.902Z,95573.34
2022-11-20T14:35:58.983Z,95551.97
2022-11-20T14:38:28.476Z,95573.50
2022-11-20T14:40:55.248Z,95567.78
2022-11-20T14:43:29.568Z,95563.56
2022-11-20T14:46:03.217Z,95563.53
2022-11-20T14:48:39.255Z,95557.03
2022-11-20T14:51:05.855Z,95558.38
2022-11-20T14:53:32.524Z,95554.66
2022-11-20T14:56:01.554Z,95571.78
2022-11-20T14:58:31.265Z,95540.44
2022-11-20T15:01:04.395Z,95564.97
2022-11-20T15:03:36.745Z,95552.09
2022-11-20T15:06:04.537Z,95572.88
2022-11-20T15:08:31.349Z,95559.31
2022-11-20T15:10:58.668Z,95562.41
2022-11-20T15:13:28.411Z,95563.44
2022-11-20T15:15:57.329Z,95562.97
2022-11-20T15:18:28.048Z,95564.84
2022-11-20T15:20:57.267Z,95529.81
2022-11-20T15:23:24.875Z,95562.09
2022-11-20T15:25:51.682Z,95542.56
2022-11-20T15:28:34.331Z,95557.78
2022-11-20T15:31:03.177Z,95559.56
2022-11-20T15:33:30.719Z,95563.22
2022-11-20T15:35:57.956Z,95557.78
2022-11-20T15:38:24.704Z,95548.94
2022-11-20T15:40:51.508Z,95517.78
2022-11-20T15:43:18.150Z,95518.22
2022-11-20T15:45:52.152Z,95520.03
2022-11-20T15:48:20.818Z,95549.97
2022-11-20T15:51:12.292Z,95549.75
2022-11-20T15:53:41.126Z,95520.88
2022-11-20T15:56:12.965Z,95538.44
2022-11-20T15:58:40.102Z,95547.66
2022-11-20T16:01:06.877Z,95521.03
2022-11-20T16:03:33.510Z,95545.16
2022-11-20T16:06:00.112Z,95546.50
2022-11-20T16:08:26.725Z,95513.50
2022-11-20T16:10:53.318Z,95538.78
2022-11-20T16:13:38.590Z,95519.44
2022-11-20T16:16:09.000Z,95538.28
2022-11-20T16:18:36.085Z,95508.81
2022-11-20T16:21:03.257Z,95537.66
2022-11-20T16:23:30.110Z,95536.59
2022-11-20T16:25:56.712Z,95533.31
2022-11-20T16:28:23.405Z,95543.78
2022-11-20T16:30:50.015Z,95543.59
2022-11-20T16:33:18.339Z,95539.00
2022-11-20T16:35:45.486Z,95540.81
2022-11-20T16:38:12.350Z,95504.53
2022-11-20T16:40:38.958Z,95504.75
2022-11-20T16:43:11.519Z,95539.88
2022-11-20T16:45:45.321Z,95543.25
2022-11-20T16:48:16.827Z,95529.25
2022-11-20T16:50:48.096Z,95529.00
2022-11-20T16:53:15.187Z,95486.19
2022-11-20T16:55:42.063Z,95455.78
2022-11-20T16:58:09.383Z,95498.31
2022-11-20T17:00:40.585Z,95505.28
2022-11-20T17:03:07.933Z,95514.53
2022-11-20T17:05:36.153Z,95530.25
2022-11-20T17:08:03.170Z,95534.19
2022-11-20T17:10:29.866Z,95526.09
2022-11-20T17:12:56.756Z,95494.63
2022-11-20T17:15:23.503Z,95500.03
2022-11-20T17:17:52.351Z,95510.63
2022-11-20T17:20:18.998Z,95508.78
2022-11-20T17:22:45.703Z,95513.47
2022-11-20T17:25:12.457Z,95500.38
2022-11-20T17:27:39.160Z,95464.84
2022-11-20T17:30:06.228Z,95484.47
2022-11-20T17:32:35.907Z,95514.66
2022-11-20T17:35:02.534Z,95513.34
2022-11-20T17:37:29.185Z,95509.97
2022-11-20T17:39:55.820Z,95494.94
2022-11-20T17:42:29.665Z,95504.50
2022-11-20T17:44:58.854Z,95509.44
2022-11-20T17:47:26.388Z,95506.06
2022-11-20T17:49:55.112Z,95505.53
2022-11-20T17:52:22.752Z,95504.88
2022-11-20T17:54:49.434Z,95520.19
2022-11-20T17:57:34.750Z,95477.88
2022-11-20T18:00:01.390Z,95511.25
2022-11-20T18:02:28.197Z,95464.34
2022-11-20T18:04:54.998Z,95479.63
2022-11-20T18:07:21.736Z,95459.66
2022-11-20T18:09:48.374Z,95460.31
2022-11-20T18:12:15.167Z,95465.88
2022-11-20T18:14:43.591Z,95460.75
2022-11-20T18:17:12.664Z,95456.25
2022-11-20T18:20:01.099Z,95419.91
2022-11-20T18:22:32.036Z,95420.38
2022-11-20T18:24:58.754Z,95443.34
2022-11-20T18:27:25.546Z,95442.59
2022-11-20T18:29:52.534Z,95440.03
2022-11-20T18:32:22.874Z,95445.66
2022-11-20T18:34:53.210Z,95401.97
2022-11-20T18:37:20.106Z,95442.03
2022-11-20T18:39:46.845Z,95432.88
2022-11-20T18:42:34.109Z,95433.06
2022-11-20T18:45:02.252Z,95413.75
2022-11-20T18:47:30.864Z,95406.06
2022-11-20T18:50:01.769Z,95427.69
2022-11-20T18:52:29.701Z,95435.00
2022-11-20T18:54:56.785Z,95423.41
2022-11-20T18:57:25.783Z,95418.00
2022-11-20T18:59:54.057Z,95424.16
2022-11-20T19:02:23.928Z,95416.91
2022-11-20T19:04:50.707Z,95392.94
2022-11-20T19:07:18.046Z,95391.66
2022-11-20T19:09:49.063Z,95384.44
2022-11-20T19:12:16.507Z,95408.59
2022-11-20T19:14:43.188Z,95378.28
2022-11-20T19:17:11.377Z,95375.59
2022-11-20T19:19:38.166Z,95381.06
2022-11-20T19:22:05.366Z,95378.06
2022-11-20T19:24:31.988Z,95368.09
2022-11-20T19:26:58.728Z,95403.41
2022-11-20T19:29:25.992Z,95348.59
2022-11-20T19:31:53.633Z,95386.56
2022-11-20T19:34:20.390Z,95389.88
2022-11-20T19:36:47.148Z,95355.44
2022-11-20T19:39:14.025Z,95378.88
2022-11-20T19:41:41.439Z,95349.13
2022-11-20T19:44:09.578Z,95361.00
2022-11-20T19:46:38.090Z,95369.84
2022-11-20T19:49:07.486Z,95350.69
2022-11-20T19:51:35.334Z,95365.78
2022-11-20T19:54:03.166Z,95324.09
2022-11-20T19:56:31.193Z,95335.38
2022-11-20T19:58:58.322Z,95363.13
2022-11-20T20:01:27.238Z,95335.53
2022-11-20T20:03:55.304Z,95354.28
2022-11-20T20:06:26.407Z,95342.81
2022-11-20T20:08:56.232Z,95352.69
2022-11-20T20:11:24.622Z,95353.16
2022-11-20T20:13:51.427Z,95331.56
2022-11-20T20:16:21.793Z,95343.41
2022-11-20T20:18:48.806Z,95345.34
2022-11-20T20:21:18.572Z,95322.22
2022-11-20T20:23:45.728Z,95351.31
2022-11-20T20:26:12.384Z,95313.00
2022-11-20T20:28:39.180Z,95358.19
2022-11-20T20:31:10.917Z,95355.69
2022-11-20T20:33:38.961Z,95346.63
2022-11-20T20:36:07.721Z,95317.22
2022-11-20T20:38:34.855Z,95317.03
2022-11-20T20:41:02.047Z,95337.16
2022-11-20T20:43:29.145Z,95325.56
2022-11-20T20:45:55.914Z,95285.38
2022-11-20T20:48:24.456Z,95322.91
2022-11-20T20:50:59.398Z,95334.06
2022-11-20T20:53:30.881Z,95331.06
2022-11-20T20:56:02.342Z,95325.59
2022-11-20T20:58:30.553Z,95333.78
2022-11-20T21:01:05.396Z,95275.00
2022-11-20T21:03:36.148Z,95309.44
2022-11-20T21:06:03.864Z,95316.59
2022-11-20T21:08:30.968Z,95319.34
2022-11-20T21:11:10.316Z,95328.38
2022-11-20T21:13:38.892Z,95285.03
2022-11-20T21:16:05.754Z,95259.69
2022-11-20T21:18:33.554Z,95311.47
2022-11-20T21:21:22.463Z,95312.59
2022-11-20T21:23:49.175Z,95283.50
2022-11-20T21:26:16.222Z,95274.44
2022-11-20T21:28:43.202Z,95280.13
2022-11-20T21:31:11.248Z,95295.75
2022-11-20T21:33:39.962Z,95291.06
2022-11-20T21:36:13.420Z,95288.75
2022-11-20T21:38:40.685Z,95280.94
2022-11-20T21:41:09.139Z,95275.28
2022-11-20T21:43:36.229Z,95258.03
2022-11-20T21:46:03.189Z,95276.34
2022-11-20T21:48:31.712Z,95247.50
2022-11-20T21:51:10.166Z,95235.28
2022-11-20T21:53:37.167Z,95244.56
2022-11-20T21:56:05.275Z,95265.09
2022-11-20T21:58:32.167Z,95261.16
2022-11-20T22:00:59.116Z,95212.63
2022-11-20T22:03:28.245Z,95217.38
2022-11-20T22:05:58.750Z,95247.16
2022-11-20T22:08:26.362Z,95247.69
2022-11-20T22:10:54.997Z,95245.94
2022-11-20T22:13:40.407Z,95231.78
2022-11-20T22:16:07.417Z,95227.72
2022-11-20T22:18:34.176Z,95202.19
2022-11-20T22:21:07.150Z,95190.94
2022-11-20T22:23:34.541Z,95231.22
2022-11-20T22:26:03.492Z,95224.69
2022-11-20T22:28:30.272Z,95203.59
2022-11-20T22:31:01.938Z,95226.06
2022-11-20T22:33:29.760Z,95223.31
2022-11-20T22:36:04.418Z,95221.84
2022-11-20T22:38:36.388Z,95210.56
2022-11-20T22:41:17.262Z,95185.94
2022-11-20T22:43:46.946Z,95187.97
2022-11-20T22:46:16.174Z,95200.47
2022-11-20T22:48:54.295Z,95152.38
2022-11-20T22:51:26.641Z,95185.16
2022-11-20T22:53:53.475Z,95197.47
2022-11-20T22:56:21.027Z,95196.13
2022-11-20T22:58:50.100Z,95196.50
2022-11-20T23:01:20.622Z,95185.81
2022-11-20T23:03:52.453Z,95165.03
2022-11-20T23:06:20.813Z,95143.53
2022-11-20T23:08:48.488Z,95163.56
2022-11-20T23:11:18.469Z,95166.75
2022-11-20T23:13:46.063Z,95165.59
2022-11-20T23:16:15.816Z,95140.09
2022-11-20T23:18:43.863Z,95152.59
2022-11-20T23:21:16.018Z,95146.88
2022-11-20T23:23:43.601Z,95178.75
2022-11-20T23:26:12.879Z,95149.00
2022-11-20T23:28:40.910Z,95185.66
2022-11-20T23:31:08.409Z,95182.75
2022-11-20T23:33:36.575Z,95143.50
2022-11-20T23:36:04.456Z,95180.75
2022-11-20T23:38:31.090Z,95167.09
2022-11-20T23:40:57.890Z,95155.06
2022-11-20T23:43:25.153Z,95171.28
2022-11-20T23:45:56.907Z,95174.66
2022-11-20T23:48:26.308Z,95134.38
2022-11-20T23:50:53.157Z,95139.47
2022-11-20T23:53:21.985Z,95174.84
2022-11-20T23:55:50.897Z,95172.72
2022-11-20T23:58:17.717Z,95171.38
